Clipper Titan — C6V2055 — position and weather

sailwx.info

Track history (hours):
 
Tides and Currents Weather Stations Pressure Air Temp Water Temp Dewpoint Dewpoint Depression Visibility Wind Speed Wind Dir Waves Ship Positions

Clipper Titan

Last reported at 2014-Nov-20 05:10 UTC. Time now 2014-Nov-23 04:41 UTC.
Position N 38°30' E 009°22'.

; draft 6.5 m.

Type: Cargo ship. MMSI: 311008200.

Date/timePositionNaut miles runAvg speedWind from/ knotsBaromVisibWave heightAir tempDewpointWater temp
2014-Nov-20 05:10N 38°30' E 009°22'1212.3
2014-Nov-20 04:14N 38°34' E 009°08'1012.4
2014-Nov-20 03:28N 38°38' E 008°57'1112.3
2014-Nov-20 02:33N 38°42' E 008°43'1212.4
2014-Nov-20 01:33N 38°47' E 008°29'1812.3
2014-Nov-20 00:06N 38°54' E 008°08'1012.4
2014-Nov-19 23:20N 38°58' E 007°57'21712.2
2014-Nov-19 05:33N 40°21' E 003°37'1312.6
2014-Nov-19 04:30N 40°26' E 003°21'1212.8
2014-Nov-19 03:33N 40°31' E 003°06'1312.6
2014-Nov-19 02:33N 40°36' E 002°51'1212.2
2014-Nov-19 01:33N 40°40' E 002°35'1212.4
2014-Nov-19 00:34N 40°45' E 002°20'1212.3
2014-Nov-18 23:33N 40°49' E 002°05'1312.0
2014-Nov-18 22:30N 40°53' E 001°49'  
2014-Nov-13 21:28N 41°05' E 001°17'0 0.1
2014-Nov-13 20:22N 41°05' E 001°17'0 0.0
2014-Nov-13 19:31N 41°05' E 001°17'0 0.0
2014-Nov-13 18:28N 41°05' E 001°17'0 0.0
2014-Nov-13 17:16N 41°05' E 001°17'0 0.0
2014-Nov-13 16:16N 41°05' E 001°17'0 0.0
2014-Nov-13 15:15N 41°05' E 001°17'16 1.0
2014-Nov-12 23:33N 40°50' E 001°10'1212.0
2014-Nov-12 22:33N 40°38' E 001°07'1111.6
2014-Nov-12 21:33N 40°27' E 001°05'1212.0
2014-Nov-12 20:33N 40°15' E 001°03'1211.7
2014-Nov-12 19:33N 40°04' E 000°60'1111.3
2014-Nov-12 18:33N 39°53' E 000°56'12511.3
2014-Nov-12 07:33N 37°59' W 000°09'1311.7
2014-Nov-12 06:25N 37°48' W 000°19'1011.5
2014-Nov-12 05:33N 37°39' W 000°26'1111.1
2014-Nov-12 04:33N 37°31' W 000°34'1111.0
2014-Nov-12 03:33N 37°23' W 000°45'1111.2
2014-Nov-12 02:33N 37°16' W 000°55'21911.9
2014-Nov-11 08:13N 35°60' W 005°11'1014.6
2014-Nov-11 07:34N 35°58' W 005°23'  
Track history (hours):
 
Tides and Currents Weather Stations Pressure Air Temp Water Temp Dewpoint Dewpoint Depression Visibility Wind Speed Wind Dir Waves Ship Positions

Clipper Titan

Last reported at 2014-Nov-20 05:10 UTC. Time now 2014-Nov-23 04:41 UTC.
Position N 38°30' E 009°22'.

; draft 6.5 m.

Type: Cargo ship. MMSI: 311008200.

Date/timePositionNaut miles runAvg speedWind from/ knotsBaromVisibWave heightAir tempDewpointWater temp
2014-Nov-20 05:10N 38°30' E 009°22'1212.3
2014-Nov-20 04:14N 38°34' E 009°08'1012.4
2014-Nov-20 03:28N 38°38' E 008°57'1112.3
2014-Nov-20 02:33N 38°42' E 008°43'1212.4
2014-Nov-20 01:33N 38°47' E 008°29'1812.3
2014-Nov-20 00:06N 38°54' E 008°08'1012.4
2014-Nov-19 23:20N 38°58' E 007°57'21712.2
2014-Nov-19 05:33N 40°21' E 003°37'1312.6
2014-Nov-19 04:30N 40°26' E 003°21'1212.8
2014-Nov-19 03:33N 40°31' E 003°06'1312.6
2014-Nov-19 02:33N 40°36' E 002°51'1212.2
2014-Nov-19 01:33N 40°40' E 002°35'1212.4
2014-Nov-19 00:34N 40°45' E 002°20'1212.3
2014-Nov-18 23:33N 40°49' E 002°05'1312.0
2014-Nov-18 22:30N 40°53' E 001°49'  
2014-Nov-13 21:28N 41°05' E 001°17'0 0.1
2014-Nov-13 20:22N 41°05' E 001°17'0 0.0
2014-Nov-13 19:31N 41°05' E 001°17'0 0.0
2014-Nov-13 18:28N 41°05' E 001°17'0 0.0
2014-Nov-13 17:16N 41°05' E 001°17'0 0.0
2014-Nov-13 16:16N 41°05' E 001°17'0 0.0
2014-Nov-13 15:15N 41°05' E 001°17'16 1.0
2014-Nov-12 23:33N 40°50' E 001°10'1212.0
2014-Nov-12 22:33N 40°38' E 001°07'1111.6
2014-Nov-12 21:33N 40°27' E 001°05'1212.0
2014-Nov-12 20:33N 40°15' E 001°03'1211.7
2014-Nov-12 19:33N 40°04' E 000°60'1111.3
2014-Nov-12 18:33N 39°53' E 000°56'12511.3
2014-Nov-12 07:33N 37°59' W 000°09'1311.7
2014-Nov-12 06:25N 37°48' W 000°19'1011.5
2014-Nov-12 05:33N 37°39' W 000°26'1111.1
2014-Nov-12 04:33N 37°31' W 000°34'1111.0
2014-Nov-12 03:33N 37°23' W 000°45'1111.2
2014-Nov-12 02:33N 37°16' W 000°55'21911.9
2014-Nov-11 08:13N 35°60' W 005°11'1014.6
2014-Nov-11 07:34N 35°58' W 005°23'  

Dump ship's entire track history